createdAt,value
2022-09-03T00:00:09.701Z,41.27
2022-09-03T00:01:09.714Z,42.27
2022-09-03T00:02:09.669Z,41.85
2022-09-03T00:03:12.597Z,41.15
2022-09-03T00:04:09.602Z,41.35
2022-09-03T00:05:09.616Z,41.25
2022-09-03T00:06:10.501Z,41.47
2022-09-03T00:07:10.509Z,41.47
2022-09-03T00:08:09.628Z,41.17
2022-09-03T00:09:09.886Z,41.37
2022-09-03T00:10:09.640Z,41.57
2022-09-03T00:11:10.566Z,42.07
2022-09-03T00:12:09.585Z,42.07
2022-09-03T00:13:10.502Z,42.68
2022-09-03T00:14:10.378Z,42.68
2022-09-03T00:15:09.663Z,41.77
2022-09-03T00:16:11.142Z,41.67
2022-09-03T00:17:09.531Z,42.58
2022-09-03T00:18:11.484Z,42.27
2022-09-03T00:19:09.489Z,41.97
2022-09-03T00:20:09.425Z,41.87
2022-09-03T00:21:09.499Z,41.67
2022-09-03T00:22:09.453Z,41.97
2022-09-03T00:23:09.472Z,42.07
2022-09-03T00:24:11.012Z,42.78
2022-09-03T00:25:09.443Z,43.08
2022-09-03T00:26:13.620Z,42.58
2022-09-03T00:27:09.754Z,42.68
2022-09-03T00:28:09.582Z,43.08
2022-09-03T00:29:10.123Z,42.07
2022-09-03T00:30:10.394Z,42.47
2022-09-03T00:31:09.456Z,43.78
2022-09-03T00:32:14.854Z,41.87
2022-09-03T00:33:09.393Z,41.57
2022-09-03T00:34:09.391Z,41.57
2022-09-03T00:35:09.404Z,43.68
2022-09-03T00:36:09.359Z,42.47
2022-09-03T00:37:14.414Z,43.08
2022-09-03T00:38:13.140Z,42.49
2022-09-03T00:39:12.012Z,42.10
2022-09-03T00:40:09.443Z,42.19
2022-09-03T00:41:10.322Z,42.80
2022-09-03T00:42:09.285Z,43.10
2022-09-03T00:43:09.249Z,43.90
2022-09-03T00:44:09.387Z,42.69
2022-09-03T00:45:09.255Z,42.80
2022-09-03T00:46:09.217Z,42.72
2022-09-03T00:47:09.223Z,44.02
2022-09-03T00:48:28.117Z,43.40
2022-09-03T00:49:09.197Z,43.80
2022-09-03T00:50:09.206Z,43.00
2022-09-03T00:51:09.183Z,43.10
2022-09-03T00:52:09.174Z,44.31
2022-09-03T00:53:09.139Z,43.20
2022-09-03T00:54:09.136Z,43.50
2022-09-03T00:55:09.114Z,42.80
2022-09-03T00:56:09.137Z,42.69
2022-09-03T00:57:09.195Z,43.42
2022-09-03T00:58:09.147Z,43.02
2022-09-03T00:59:09.107Z,43.42
2022-09-03T01:00:09.088Z,43.82
2022-09-03T01:01:09.130Z,44.63
2022-09-03T01:02:09.105Z,42.92
2022-09-03T01:03:09.169Z,42.82
2022-09-03T01:04:11.024Z,44.93
2022-09-03T01:05:09.062Z,43.12
2022-09-03T01:06:09.547Z,43.00
2022-09-03T01:07:10.349Z,45.10
2022-09-03T01:08:08.991Z,43.20
2022-09-03T01:09:09.056Z,43.10
2022-09-03T01:10:08.981Z,42.69
2022-09-03T01:11:09.252Z,43.12
2022-09-03T01:12:09.035Z,43.12
2022-09-03T01:13:08.958Z,44.23
2022-09-03T01:14:08.976Z,43.42
2022-09-03T01:15:08.951Z,44.53
2022-09-03T01:16:09.680Z,43.90
2022-09-03T01:17:08.907Z,43.82
2022-09-03T01:18:08.903Z,44.93
2022-09-03T01:19:08.915Z,44.53
2022-09-03T01:20:08.899Z,43.82
2022-09-03T01:21:08.860Z,43.52
2022-09-03T01:22:40.714Z,43.92
2022-09-03T01:23:08.893Z,44.73
2022-09-03T01:24:08.999Z,45.03
2022-09-03T01:25:08.889Z,44.53
2022-09-03T01:26:08.822Z,44.02
2022-09-03T01:27:08.824Z,44.12
2022-09-03T01:28:13.582Z,45.13
2022-09-03T01:29:08.802Z,44.53
2022-09-03T01:30:08.780Z,44.73
2022-09-03T01:31:08.838Z,44.02
2022-09-03T01:32:08.808Z,44.53
2022-09-03T01:33:08.767Z,45.33
2022-09-03T01:34:08.794Z,43.82
2022-09-03T01:35:08.744Z,44.45
2022-09-03T01:36:08.718Z,44.65
2022-09-03T01:37:09.609Z,44.04
2022-09-03T01:38:08.734Z,44.85
2022-09-03T01:39:08.715Z,44.35
2022-09-03T01:40:08.673Z,45.86
2022-09-03T01:41:10.575Z,45.65
2022-09-03T01:42:08.659Z,44.55
2022-09-03T01:43:08.732Z,44.65
2022-09-03T01:44:09.590Z,44.35
2022-09-03T01:45:08.697Z,44.24
2022-09-03T01:46:08.766Z,44.24
2022-09-03T01:47:13.576Z,44.35
2022-09-03T01:48:08.630Z,44.35
2022-09-03T01:49:08.628Z,44.45
2022-09-03T01:50:08.633Z,44.55
2022-09-03T01:51:08.620Z,44.55
2022-09-03T01:52:08.558Z,44.35
2022-09-03T01:53:08.569Z,44.35
2022-09-03T01:54:10.926Z,44.45
2022-09-03T01:55:08.532Z,44.57
2022-09-03T01:56:08.668Z,44.57
2022-09-03T01:57:12.841Z,44.67
2022-09-03T01:58:08.539Z,44.57
2022-09-03T01:59:08.528Z,44.47
2022-09-03T02:00:08.517Z,44.97
2022-09-03T02:01:08.582Z,44.67
2022-09-03T02:02:09.045Z,44.57
2022-09-03T02:03:10.085Z,44.67
2022-09-03T02:04:09.644Z,45.17
2022-09-03T02:05:08.489Z,44.77
2022-09-03T02:06:08.496Z,44.67
2022-09-03T02:07:08.496Z,44.67
2022-09-03T02:08:08.470Z,44.67
2022-09-03T02:09:08.415Z,44.75
2022-09-03T02:10:08.413Z,44.65
2022-09-03T02:11:08.663Z,44.77
2022-09-03T02:12:10.881Z,44.67
2022-09-03T02:13:08.404Z,44.67
2022-09-03T02:14:09.138Z,44.75
2022-09-03T02:15:08.379Z,44.85
2022-09-03T02:16:08.374Z,44.87
2022-09-03T02:17:08.353Z,45.47
2022-09-03T02:18:08.380Z,44.97
2022-09-03T02:19:08.318Z,44.97
2022-09-03T02:20:08.306Z,44.95
2022-09-03T02:21:08.297Z,44.97
2022-09-03T02:22:08.374Z,44.85
2022-09-03T02:23:09.017Z,44.87
2022-09-03T02:24:10.141Z,44.97
2022-09-03T02:25:08.325Z,44.75
2022-09-03T02:26:08.282Z,45.07
2022-09-03T02:27:09.105Z,44.97
2022-09-03T02:28:27.936Z,45.37
2022-09-03T02:29:10.124Z,46.48
2022-09-03T02:30:09.025Z,45.78
2022-09-03T02:31:08.258Z,45.37
2022-09-03T02:32:10.957Z,45.25
2022-09-03T02:33:18.627Z,44.75
2022-09-03T02:34:08.188Z,45.35
2022-09-03T02:35:11.086Z,44.75
2022-09-03T02:36:08.154Z,45.75
2022-09-03T02:37:10.097Z,45.05
2022-09-03T02:38:12.152Z,45.55
2022-09-03T02:39:09.036Z,45.63
2022-09-03T02:40:08.145Z,44.63
2022-09-03T02:41:10.100Z,45.73
2022-09-03T02:42:25.055Z,44.63
2022-09-03T02:43:08.171Z,44.32
2022-09-03T02:44:08.057Z,44.23
2022-09-03T02:45:08.047Z,44.32
2022-09-03T02:46:08.088Z,44.43
2022-09-03T02:47:08.039Z,44.53
2022-09-03T02:48:08.029Z,44.75
2022-09-03T02:49:08.084Z,44.65
2022-09-03T02:50:13.456Z,44.85
2022-09-03T02:51:14.332Z,44.65
2022-09-03T02:52:08.057Z,44.65
2022-09-03T02:53:08.053Z,44.75
2022-09-03T02:54:07.970Z,44.65
2022-09-03T02:55:08.002Z,44.85
2022-09-03T02:56:07.925Z,44.95
2022-09-03T02:57:07.947Z,45.15
2022-09-03T02:58:07.922Z,44.95
2022-09-03T02:59:07.939Z,45.15
2022-09-03T03:00:07.929Z,45.05
2022-09-03T03:01:07.966Z,45.27
2022-09-03T03:02:07.921Z,45.47
2022-09-03T03:03:07.911Z,45.37
2022-09-03T03:04:07.886Z,45.45
2022-09-03T03:05:07.917Z,45.65
2022-09-03T03:06:07.830Z,45.67
2022-09-03T03:07:08.563Z,45.45
2022-09-03T03:08:07.898Z,45.65
2022-09-03T03:09:07.852Z,45.67
2022-09-03T03:10:10.435Z,45.78
2022-09-03T03:11:10.524Z,45.98
2022-09-03T03:12:07.755Z,46.38
2022-09-03T03:13:08.586Z,45.87
2022-09-03T03:14:07.837Z,45.78
2022-09-03T03:15:07.788Z,45.78
2022-09-03T03:16:07.831Z,45.87
2022-09-03T03:17:07.770Z,47.49
2022-09-03T03:18:07.842Z,45.87
2022-09-03T03:19:08.234Z,46.48
2022-09-03T03:20:08.491Z,46.26
2022-09-03T03:21:08.819Z,45.95
2022-09-03T03:22:07.660Z,45.65
2022-09-03T03:23:07.671Z,45.75
2022-09-03T03:24:07.684Z,45.86
2022-09-03T03:25:07.736Z,45.78
2022-09-03T03:26:07.654Z,45.98
2022-09-03T03:27:07.623Z,45.98
2022-09-03T03:28:07.611Z,46.08
2022-09-03T03:29:07.607Z,46.08
2022-09-03T03:30:07.625Z,46.08
2022-09-03T03:31:07.692Z,46.28
2022-09-03T03:32:07.669Z,46.08
2022-09-03T03:33:07.560Z,46.18
2022-09-03T03:34:07.551Z,46.98
2022-09-03T03:35:07.541Z,46.68
2022-09-03T03:36:07.556Z,46.48
2022-09-03T03:37:07.579Z,47.16
2022-09-03T03:38:07.530Z,46.46
2022-09-03T03:39:07.509Z,46.15
2022-09-03T03:40:07.531Z,47.06
2022-09-03T03:41:07.510Z,45.95
2022-09-03T03:42:07.512Z,46.26
2022-09-03T03:43:07.539Z,45.95
2022-09-03T03:44:07.545Z,46.15
2022-09-03T03:45:08.095Z,46.06
2022-09-03T03:46:07.498Z,46.26
2022-09-03T03:47:07.463Z,46.06
2022-09-03T03:48:07.413Z,46.28
2022-09-03T03:49:07.430Z,46.28
2022-09-03T03:50:07.407Z,46.28
2022-09-03T03:51:07.457Z,47.08
2022-09-03T03:52:07.774Z,46.38
2022-09-03T03:53:07.403Z,46.38
2022-09-03T03:54:07.397Z,46.88
2022-09-03T03:55:07.418Z,46.98
2022-09-03T03:56:07.440Z,46.58
2022-09-03T03:57:07.387Z,46.96
2022-09-03T03:58:07.369Z,46.56
2022-09-03T03:59:07.375Z,46.26
2022-09-03T04:00:17.560Z,46.36
2022-09-03T04:01:07.356Z,46.48
2022-09-03T04:02:07.423Z,46.58
2022-09-03T04:03:09.125Z,46.78
2022-09-03T04:04:08.043Z,46.88
2022-09-03T04:05:08.109Z,46.98
2022-09-03T04:06:10.101Z,47.08
2022-09-03T04:07:07.250Z,47.89
2022-09-03T04:08:07.239Z,47.79
2022-09-03T04:09:07.261Z,46.98
2022-09-03T04:10:07.139Z,47.19
2022-09-03T04:11:20.072Z,46.98
2022-09-03T04:12:07.642Z,47.19
2022-09-03T04:13:07.288Z,47.39
2022-09-03T04:14:07.244Z,47.61
2022-09-03T04:15:07.191Z,47.61
2022-09-03T04:16:08.234Z,47.51
2022-09-03T04:17:12.492Z,47.61
2022-09-03T04:18:07.121Z,47.81
2022-09-03T04:19:07.126Z,47.91
2022-09-03T04:20:07.143Z,47.91
2022-09-03T04:21:08.185Z,47.71
2022-09-03T04:22:07.073Z,47.81
2022-09-03T04:23:07.058Z,47.91
2022-09-03T04:24:07.059Z,47.91
2022-09-03T04:25:06.990Z,47.94
2022-09-03T04:26:07.000Z,48.03
2022-09-03T04:27:07.047Z,48.03
2022-09-03T04:28:07.041Z,48.14
2022-09-03T04:29:07.037Z,48.24
2022-09-03T04:30:06.946Z,48.03
2022-09-03T04:31:07.039Z,48.03
2022-09-03T04:32:06.975Z,48.03
2022-09-03T04:33:06.933Z,48.14
2022-09-03T04:34:06.927Z,48.24
2022-09-03T04:35:06.888Z,48.44
2022-09-03T04:36:07.605Z,48.24
2022-09-03T04:37:09.639Z,48.44
2022-09-03T04:38:06.901Z,48.54
2022-09-03T04:39:06.925Z,48.74
2022-09-03T04:40:30.235Z,48.64
2022-09-03T04:41:06.931Z,48.74
2022-09-03T04:42:07.190Z,49.44
2022-09-03T04:43:06.923Z,48.84
2022-09-03T04:44:06.838Z,48.74
2022-09-03T04:45:06.837Z,48.84
2022-09-03T04:46:06.938Z,48.64
2022-09-03T04:47:06.788Z,48.74
2022-09-03T04:48:06.816Z,48.84
2022-09-03T04:49:06.776Z,48.76
2022-09-03T04:50:06.824Z,48.76
2022-09-03T04:51:07.721Z,48.76
2022-09-03T04:52:46.220Z,48.76
2022-09-03T04:53:08.197Z,48.76
2022-09-03T04:54:07.708Z,48.64
2022-09-03T04:55:10.446Z,48.66
2022-09-03T04:56:06.668Z,48.66
2022-09-03T04:57:07.610Z,48.74
2022-09-03T04:58:06.746Z,48.84
2022-09-03T04:59:06.742Z,48.94
2022-09-03T05:00:06.767Z,48.84
2022-09-03T05:01:06.752Z,48.74
2022-09-03T05:02:07.064Z,48.74
2022-09-03T05:03:07.625Z,48.74
2022-09-03T05:04:07.691Z,48.74
2022-09-03T05:05:06.587Z,48.84
2022-09-03T05:06:08.173Z,49.04
2022-09-03T05:07:07.612Z,48.84
2022-09-03T05:08:08.090Z,49.44
2022-09-03T05:09:06.550Z,50.25
2022-09-03T05:10:06.614Z,48.94
2022-09-03T05:11:06.566Z,48.41
2022-09-03T05:12:06.577Z,48.32
2022-09-03T05:13:06.557Z,48.41
2022-09-03T05:14:06.586Z,48.32
2022-09-03T05:15:07.125Z,48.32
2022-09-03T05:16:06.592Z,48.41
2022-09-03T05:17:09.054Z,48.61
2022-09-03T05:18:06.567Z,48.84
2022-09-03T05:19:06.504Z,48.84
2022-09-03T05:20:06.608Z,48.94
2022-09-03T05:21:06.486Z,49.44
2022-09-03T05:22:09.161Z,49.44
2022-09-03T05:23:06.474Z,49.65
2022-09-03T05:24:10.652Z,50.25
2022-09-03T05:25:06.704Z,49.52
2022-09-03T05:26:06.392Z,49.32
2022-09-03T05:27:06.392Z,49.22
2022-09-03T05:28:06.402Z,49.32
2022-09-03T05:29:06.381Z,49.32
2022-09-03T05:30:06.323Z,49.35
2022-09-03T05:31:21.166Z,49.44
2022-09-03T05:32:06.379Z,49.35
2022-09-03T05:33:06.382Z,49.75
2022-09-03T05:34:06.346Z,50.02
2022-09-03T05:35:06.312Z,49.65
2022-09-03T05:36:06.288Z,49.75
2022-09-03T05:37:23.206Z,50.65
2022-09-03T05:38:06.260Z,50.65
2022-09-03T05:39:06.281Z,49.95
2022-09-03T05:40:06.248Z,50.35
2022-09-03T05:41:08.149Z,50.15
2022-09-03T05:42:07.078Z,50.05
2022-09-03T05:43:11.221Z,50.53
2022-09-03T05:44:06.231Z,49.52
2022-09-03T05:45:06.208Z,49.32
2022-09-03T05:46:06.258Z,49.42
2022-09-03T05:47:06.190Z,49.32
2022-09-03T05:48:06.154Z,49.62
2022-09-03T05:49:06.251Z,49.73
2022-09-03T05:50:06.154Z,49.73
2022-09-03T05:51:06.632Z,49.93
2022-09-03T05:52:06.142Z,50.25
2022-09-03T05:53:06.124Z,50.65
2022-09-03T05:54:06.116Z,51.36
2022-09-03T05:55:06.141Z,51.86
2022-09-03T05:56:06.126Z,52.06
2022-09-03T05:57:06.102Z,52.47
2022-09-03T05:58:06.119Z,53.67
2022-09-03T05:59:06.185Z,53.47
2022-09-03T06:00:06.079Z,52.67
2022-09-03T06:01:06.056Z,53.88
2022-09-03T06:02:06.093Z,52.19
2022-09-03T06:03:06.205Z,52.69
2022-09-03T06:04:06.101Z,52.59
2022-09-03T06:05:06.721Z,53.60
2022-09-03T06:06:06.081Z,54.21
2022-09-03T06:07:10.117Z,55.21
2022-09-03T06:08:05.995Z,56.22
2022-09-03T06:09:05.941Z,56.42
2022-09-03T06:10:05.986Z,54.91
2022-09-03T06:11:06.001Z,56.72
2022-09-03T06:12:05.924Z,54.10
2022-09-03T06:13:05.910Z,53.50
2022-09-03T06:14:05.987Z,53.80
2022-09-03T06:15:05.934Z,54.91
2022-09-03T06:16:05.960Z,54.79
2022-09-03T06:17:05.950Z,54.18
2022-09-03T06:18:05.900Z,54.79
2022-09-03T06:19:05.877Z,54.88
2022-09-03T06:20:05.868Z,54.58
2022-09-03T06:21:05.871Z,54.99
2022-09-03T06:22:05.824Z,54.79
2022-09-03T06:23:05.880Z,53.98
2022-09-03T06:24:05.866Z,54.18
2022-09-03T06:25:05.815Z,54.68
2022-09-03T06:26:05.874Z,55.19
2022-09-03T06:27:05.830Z,56.90
2022-09-03T06:28:05.772Z,55.49
2022-09-03T06:29:05.816Z,55.66
2022-09-03T06:30:05.745Z,55.96
2022-09-03T06:31:05.816Z,54.75
2022-09-03T06:32:05.776Z,55.87
2022-09-03T06:33:05.748Z,56.27
2022-09-03T06:34:05.807Z,55.96
2022-09-03T06:35:05.707Z,55.66
2022-09-03T06:36:08.857Z,57.17
2022-09-03T06:37:07.584Z,54.96
2022-09-03T06:38:07.641Z,55.26
2022-09-03T06:39:05.674Z,56.60
2022-09-03T06:40:05.769Z,56.40
2022-09-03T06:41:05.663Z,56.70
2022-09-03T06:42:05.662Z,56.20
2022-09-03T06:43:05.619Z,56.09
2022-09-03T06:44:06.099Z,55.79
2022-09-03T06:45:16.672Z,56.80
2022-09-03T06:46:05.714Z,55.08
2022-09-03T06:47:05.603Z,55.69
2022-09-03T06:48:05.558Z,55.39
2022-09-03T06:49:06.191Z,56.47
2022-09-03T06:50:06.689Z,56.47
2022-09-03T06:53:38.113Z,57.07
2022-09-03T06:53:43.142Z,55.87
2022-09-03T06:54:43.387Z,55.46
2022-09-03T06:55:47.210Z,56.47
2022-09-03T06:56:43.103Z,57.17
2022-09-03T06:57:43.120Z,56.20
2022-09-03T06:58:43.138Z,56.20
2022-09-03T06:59:43.081Z,56.60
2022-09-03T07:00:43.267Z,56.49
2022-09-03T07:01:44.215Z,56.80
2022-09-03T07:02:45.047Z,57.60
2022-09-03T07:03:43.012Z,57.70
2022-09-03T07:04:43.033Z,56.72
2022-09-03T07:05:43.010Z,57.23
2022-09-03T07:06:44.338Z,58.14
2022-09-03T07:07:43.068Z,60.15
2022-09-03T07:08:43.031Z,56.80
2022-09-03T07:09:48.206Z,57.83
2022-09-03T07:10:43.039Z,57.73
2022-09-03T07:11:42.918Z,57.83
2022-09-03T07:12:44.590Z,58.14
2022-09-03T07:13:42.935Z,58.03
2022-09-03T07:14:44.750Z,58.34
2022-09-03T07:15:42.943Z,58.94
2022-09-03T07:16:42.942Z,59.84
2022-09-03T07:17:42.886Z,59.24
2022-09-03T07:18:42.872Z,59.95
2022-09-03T07:19:42.870Z,59.55
2022-09-03T07:20:42.894Z,59.04
2022-09-03T07:21:48.099Z,60.15
2022-09-03T07:22:42.865Z,61.86
2022-09-03T07:23:42.806Z,61.86
2022-09-03T07:24:43.030Z,61.66
2022-09-03T07:25:42.922Z,61.56
2022-09-03T07:26:42.821Z,62.46
2022-09-03T07:27:42.809Z,60.05
2022-09-03T07:28:42.772Z,59.64
2022-09-03T07:29:42.748Z,60.38
2022-09-03T07:30:42.736Z,62.09
2022-09-03T07:31:42.805Z,62.40
2022-09-03T07:32:42.737Z,64.07
2022-09-03T07:33:42.727Z,64.69
2022-09-03T07:34:42.752Z,64.07
2022-09-03T07:35:42.701Z,65.69
2022-09-03T07:36:43.130Z,66.60
2022-09-03T07:37:42.682Z,66.50
2022-09-03T07:38:42.679Z,63.67
2022-09-03T07:39:42.732Z,65.79
2022-09-03T07:40:42.642Z,66.63
2022-09-03T07:41:42.645Z,64.61
2022-09-03T07:42:42.621Z,68.04
2022-09-03T07:43:42.598Z,69.85
2022-09-03T07:44:42.588Z,70.36
2022-09-03T07:45:42.582Z,65.72
2022-09-03T07:46:42.735Z,65.62
2022-09-03T07:47:42.612Z,70.26
2022-09-03T07:48:42.583Z,71.17
2022-09-03T07:49:42.541Z,73.08
2022-09-03T07:50:42.544Z,72.67
2022-09-03T07:51:42.545Z,73.79
2022-09-03T07:52:42.534Z,74.22
2022-09-03T07:53:42.498Z,74.43
2022-09-03T07:54:42.498Z,75.63
2022-09-03T07:55:42.475Z,75.43
2022-09-03T07:56:42.509Z,77.25
2022-09-03T07:57:42.482Z,75.77
2022-09-03T07:58:42.465Z,76.34
2022-09-03T07:59:42.675Z,76.95
2022-09-03T08:00:42.572Z,77.15
2022-09-03T08:01:42.421Z,76.28
2022-09-03T08:02:46.148Z,76.64
2022-09-03T08:03:42.432Z,77.66
2022-09-03T08:04:42.457Z,75.13
2022-09-03T08:05:42.395Z,77.25
2022-09-03T08:06:42.441Z,78.16
2022-09-03T08:07:42.405Z,78.26
2022-09-03T08:08:42.353Z,78.46
2022-09-03T08:09:42.396Z,78.16
2022-09-03T08:10:42.582Z,79.87
2022-09-03T08:11:42.338Z,79.27
2022-09-03T08:12:42.324Z,77.75
2022-09-03T08:13:42.326Z,79.67
2022-09-03T08:14:42.338Z,79.67
2022-09-03T08:15:42.281Z,75.94
2022-09-03T08:16:42.260Z,76.84
2022-09-03T08:17:42.253Z,78.66
2022-09-03T08:18:42.267Z,77.86
2022-09-03T08:19:42.278Z,74.73
2022-09-03T08:20:42.261Z,73.11
2022-09-03T08:21:42.440Z,72.11
2022-09-03T08:22:42.203Z,76.84
2022-09-03T08:23:42.212Z,78.46
2022-09-03T08:24:42.197Z,77.51
2022-09-03T08:25:42.202Z,77.82
2022-09-03T08:26:42.918Z,72.17
2022-09-03T08:27:42.179Z,75.03
2022-09-03T08:28:42.166Z,74.32
2022-09-03T08:29:42.190Z,75.94
2022-09-03T08:30:42.117Z,75.43
2022-09-03T08:31:42.206Z,76.31
2022-09-03T08:32:42.129Z,75.13
2022-09-03T08:33:42.098Z,75.74
2022-09-03T08:34:42.131Z,76.24
2022-09-03T08:35:42.074Z,76.68
2022-09-03T08:36:42.126Z,78.46
2022-09-03T08:37:42.107Z,76.04
2022-09-03T08:38:42.035Z,74.52
2022-09-03T08:39:42.077Z,74.63
2022-09-03T08:40:43.684Z,73.68
2022-09-03T08:41:42.085Z,74.99
2022-09-03T08:42:42.015Z,76.91
2022-09-03T08:43:42.037Z,77.31
2022-09-03T08:44:41.987Z,76.77
2022-09-03T08:45:42.005Z,74.46
2022-09-03T08:46:42.023Z,74.55
2022-09-03T08:47:41.967Z,75.43
2022-09-03T08:48:41.994Z,75.43
2022-09-03T08:49:42.054Z,74.82
2022-09-03T08:50:41.958Z,73.52
2022-09-03T08:51:41.953Z,69.49
2022-09-03T08:52:41.967Z,70.53
2022-09-03T08:53:41.937Z,72.24
2022-09-03T08:54:41.937Z,74.05
2022-09-03T08:55:41.858Z,74.55
2022-09-03T08:56:41.856Z,75.36
2022-09-03T08:57:41.878Z,73.45
2022-09-03T08:58:41.839Z,74.32
2022-09-03T08:59:41.819Z,67.27
2022-09-03T09:00:41.815Z,68.38
2022-09-03T09:01:41.986Z,70.50
2022-09-03T09:02:41.943Z,68.71
2022-09-03T09:03:41.830Z,70.70
2022-09-03T09:04:41.783Z,72.00
2022-09-03T09:05:41.759Z,73.01
2022-09-03T09:06:41.764Z,74.32
2022-09-03T09:07:41.760Z,72.47
2022-09-03T09:08:41.754Z,72.07
2022-09-03T09:09:41.731Z,68.95
2022-09-03T09:10:41.722Z,69.05
2022-09-03T09:11:41.733Z,70.66
2022-09-03T09:12:46.554Z,72.27
2022-09-03T09:13:41.708Z,68.95
2022-09-03T09:14:41.678Z,68.88
2022-09-03T09:15:41.724Z,68.24
2022-09-03T09:16:41.660Z,69.56
2022-09-03T09:17:41.669Z,67.94
2022-09-03T09:18:41.638Z,68.44
2022-09-03T09:19:41.633Z,69.15
2022-09-03T09:20:41.679Z,69.25
2022-09-03T09:21:41.642Z,69.96
2022-09-03T09:22:41.601Z,71.43
2022-09-03T09:23:41.619Z,71.73
2022-09-03T09:24:41.580Z,70.73
2022-09-03T09:25:41.567Z,71.94
2022-09-03T09:26:41.591Z,67.81
2022-09-03T09:27:41.548Z,68.41
2022-09-03T09:28:41.564Z,68.11
2022-09-03T09:29:41.524Z,67.81
2022-09-03T09:30:41.518Z,66.80
2022-09-03T09:31:41.589Z,66.91
2022-09-03T09:32:41.519Z,66.71
2022-09-03T09:33:41.515Z,66.80
2022-09-03T09:34:41.495Z,67.94
2022-09-03T09:35:41.468Z,67.74
2022-09-03T09:36:41.516Z,69.22
2022-09-03T09:37:41.464Z,70.43
2022-09-03T09:38:41.457Z,69.18
2022-09-03T09:39:41.475Z,68.15
2022-09-03T09:40:44.914Z,67.44
2022-09-03T09:41:41.444Z,67.11
2022-09-03T09:42:41.416Z,66.81
2022-09-03T09:43:41.388Z,66.08
2022-09-03T09:44:41.377Z,64.37
2022-09-03T09:45:41.371Z,64.60
2022-09-03T09:46:41.432Z,64.70
2022-09-03T09:47:41.378Z,65.00
2022-09-03T09:48:41.359Z,65.70
2022-09-03T09:49:41.328Z,64.87
2022-09-03T09:50:41.359Z,66.47
2022-09-03T09:51:41.310Z,65.67
2022-09-03T09:52:41.301Z,64.67
2022-09-03T09:53:41.318Z,64.97
2022-09-03T09:54:41.276Z,64.27
2022-09-03T09:55:41.284Z,63.76
2022-09-03T09:56:41.258Z,64.40
2022-09-03T09:57:41.270Z,66.28
2022-09-03T09:58:41.257Z,65.27
2022-09-03T09:59:41.242Z,65.07
2022-09-03T10:00:41.218Z,64.60
2022-09-03T10:01:41.298Z,64.80
2022-09-03T10:02:41.340Z,64.70
2022-09-03T10:03:41.204Z,66.41
2022-09-03T10:04:41.199Z,66.31
2022-09-03T10:05:41.177Z,65.97
2022-09-03T10:06:41.181Z,64.40
2022-09-03T10:07:41.184Z,64.40
2022-09-03T10:08:41.139Z,65.20
2022-09-03T10:09:41.203Z,66.00
2022-09-03T10:10:41.125Z,65.50
2022-09-03T10:11:41.117Z,65.20
2022-09-03T10:12:41.127Z,64.80
2022-09-03T10:13:41.133Z,64.70
2022-09-03T10:14:41.087Z,65.00
2022-09-03T10:15:41.148Z,64.90
2022-09-03T10:16:41.085Z,65.20
2022-09-03T10:17:41.127Z,65.70
2022-09-03T10:18:41.057Z,66.00
2022-09-03T10:19:41.064Z,64.80
2022-09-03T10:20:41.049Z,64.50
2022-09-03T10:21:41.090Z,65.10
2022-09-03T10:22:41.020Z,64.60
2022-09-03T10:23:41.020Z,64.70
2022-09-03T10:24:41.021Z,64.90
2022-09-03T10:25:40.997Z,64.73
2022-09-03T10:26:40.977Z,64.83
2022-09-03T10:27:41.137Z,65.13
2022-09-03T10:28:40.957Z,65.13
2022-09-03T10:29:40.949Z,65.23
2022-09-03T10:30:41.000Z,65.84
2022-09-03T10:31:40.938Z,67.24
2022-09-03T10:32:43.808Z,66.14
2022-09-03T10:33:40.903Z,67.11
2022-09-03T10:34:40.907Z,64.60
2022-09-03T10:35:40.948Z,64.07
2022-09-03T10:36:40.869Z,64.17
2022-09-03T10:37:40.911Z,64.24
2022-09-03T10:38:40.850Z,64.74
2022-09-03T10:39:43.260Z,64.24
2022-09-03T10:40:40.827Z,62.83
2022-09-03T10:41:40.831Z,62.50
2022-09-03T10:42:40.806Z,63.10
2022-09-03T10:43:40.873Z,63.47
2022-09-03T10:44:40.834Z,62.94
2022-09-03T10:45:40.805Z,61.34
2022-09-03T10:46:40.837Z,61.04
2022-09-03T10:47:40.763Z,61.36
2022-09-03T10:48:40.792Z,61.47
2022-09-03T10:49:40.767Z,62.17
2022-09-03T10:50:40.801Z,62.67
2022-09-03T10:51:40.717Z,62.07
2022-09-03T10:52:40.716Z,62.24
2022-09-03T10:53:40.703Z,62.47
2022-09-03T10:54:40.684Z,62.87
2022-09-03T10:55:40.772Z,62.94
2022-09-03T10:56:40.737Z,62.64
2022-09-03T10:57:40.697Z,63.24
2022-09-03T10:58:40.659Z,63.04
2022-09-03T10:59:40.631Z,62.34
2022-09-03T11:00:40.633Z,62.54
2022-09-03T11:01:40.766Z,62.94
2022-09-03T11:02:40.647Z,62.41
2022-09-03T11:03:40.603Z,63.31
2022-09-03T11:04:40.601Z,63.04
2022-09-03T11:05:40.658Z,62.44
2022-09-03T11:06:40.590Z,62.74
2022-09-03T11:07:40.561Z,63.28
2022-09-03T11:08:40.589Z,63.47
2022-09-03T11:09:40.641Z,63.67
2022-09-03T11:10:40.558Z,63.95
2022-09-03T11:11:40.532Z,64.04
2022-09-03T11:12:40.520Z,63.34
2022-09-03T11:13:40.520Z,63.24
2022-09-03T11:14:40.515Z,63.14
2022-09-03T11:15:40.556Z,63.34
2022-09-03T11:16:40.448Z,64.15
2022-09-03T11:17:40.510Z,64.34
2022-09-03T11:18:40.447Z,63.34
2022-09-03T11:19:40.448Z,63.11
2022-09-03T11:20:40.416Z,62.92
2022-09-03T11:21:40.485Z,63.11
2022-09-03T11:22:40.461Z,63.75
2022-09-03T11:23:40.391Z,63.84
2022-09-03T11:24:40.443Z,63.75
2022-09-03T11:25:40.393Z,63.92
2022-09-03T11:26:40.376Z,63.71
2022-09-03T11:27:40.347Z,63.01
2022-09-03T11:28:40.352Z,62.51
2022-09-03T11:29:40.367Z,62.51
2022-09-03T11:30:40.394Z,62.61
2022-09-03T11:31:40.331Z,62.92
2022-09-03T11:32:40.327Z,63.11
2022-09-03T11:33:40.288Z,63.01
2022-09-03T11:34:40.288Z,63.11
2022-09-03T11:35:40.319Z,63.34
2022-09-03T11:36:42.712Z,63.61
2022-09-03T11:37:40.278Z,63.61
2022-09-03T11:38:40.255Z,63.11
2022-09-03T11:39:40.361Z,62.48
2022-09-03T11:40:40.247Z,62.38
2022-09-03T11:41:40.196Z,63.21
2022-09-03T11:42:40.203Z,62.81
2022-09-03T11:43:40.211Z,62.92
2022-09-03T11:44:44.716Z,63.21
2022-09-03T11:45:40.352Z,63.42
2022-09-03T11:46:40.145Z,63.81
2022-09-03T11:47:40.183Z,64.04
2022-09-03T11:48:40.183Z,64.22
2022-09-03T11:49:40.145Z,63.28
2022-09-03T11:50:40.121Z,62.68
2022-09-03T11:51:40.094Z,62.15
2022-09-03T11:52:40.110Z,62.15
2022-09-03T11:53:40.080Z,62.25
2022-09-03T11:54:40.101Z,62.05
2022-09-03T11:55:43.463Z,61.82
2022-09-03T11:56:40.035Z,61.45
2022-09-03T11:57:40.042Z,61.52
2022-09-03T11:58:40.041Z,61.82
2022-09-03T11:59:40.015Z,61.62
2022-09-03T12:00:40.037Z,62.35
2022-09-03T12:01:40.020Z,62.52
2022-09-03T12:02:40.084Z,62.22
2022-09-03T12:03:39.993Z,62.02
2022-09-03T12:04:40.197Z,61.82
2022-09-03T12:05:39.980Z,62.32
2022-09-03T12:06:40.013Z,62.55
2022-09-03T12:07:39.957Z,62.32
2022-09-03T12:08:39.930Z,62.42
2022-09-03T12:09:39.984Z,62.52
2022-09-03T12:10:39.933Z,62.52
2022-09-03T12:11:39.919Z,62.39
2022-09-03T12:12:39.881Z,62.49
2022-09-03T12:13:39.869Z,61.59
2022-09-03T12:14:39.900Z,61.82
2022-09-03T12:15:39.994Z,62.72
2022-09-03T12:16:39.868Z,62.82
2022-09-03T12:17:39.840Z,62.12
2022-09-03T12:18:39.825Z,62.02
2022-09-03T12:19:39.830Z,62.02
2022-09-03T12:20:39.802Z,62.02
2022-09-03T12:21:39.801Z,62.62
2022-09-03T12:22:39.797Z,62.42
2022-09-03T12:23:39.787Z,62.42
2022-09-03T12:24:39.761Z,62.42
2022-09-03T12:25:39.749Z,62.52
2022-09-03T12:26:39.735Z,62.70
2022-09-03T12:27:39.744Z,61.99
2022-09-03T12:28:43.895Z,61.46
2022-09-03T12:29:39.761Z,61.16
2022-09-03T12:30:39.745Z,61.07
2022-09-03T12:31:43.024Z,61.46
2022-09-03T12:32:39.719Z,61.26
2022-09-03T12:33:39.671Z,60.86
2022-09-03T12:34:39.695Z,60.63
2022-09-03T12:36:39.649Z,60.03
2022-09-03T12:39:07.584Z,60.44
2022-09-03T12:41:23.189Z,61.46
2022-09-03T12:41:39.709Z,61.96
2022-09-03T12:42:39.576Z,61.76
2022-09-03T12:43:41.213Z,61.57
2022-09-03T12:44:39.581Z,60.86
2022-09-03T12:46:39.605Z,61.04
2022-09-03T12:47:39.662Z,60.83
2022-09-03T12:48:43.345Z,60.21
2022-09-03T12:49:39.537Z,59.51
2022-09-03T12:50:42.623Z,59.18
2022-09-03T12:51:48.530Z,59.31
2022-09-03T12:52:39.484Z,60.03
2022-09-03T12:53:39.487Z,60.44
2022-09-03T12:54:39.490Z,60.74
2022-09-03T12:55:39.478Z,61.13
2022-09-03T12:56:42.618Z,60.63
2022-09-03T12:57:39.472Z,60.44